This is the latest recevied weather packets stored in our database for station/object YREN. If no packets are shown the sender has not sent any weather packets the latest 10 day(s).
| Time | Temp. | Humidity | Pressure | Rain* | Wind** | Luminosity | Snow |
|---|---|---|---|---|---|---|---|
| 1788594604 | 16.67° C | 49% | 1015.2 hPa | 0 mm | - | - | - |
| 1788593704 | 16.67° C | 49% | 1015.2 hPa | 0 mm | - | - | - |
| 1788592804 | 16.67° C | 49% | 1014.6 hPa | 0 mm | - | - | - |
| 1788591904 | 16.67° C | 49% | 1014.6 hPa | 0 mm | - | - | - |
| 1788591004 | 17.22° C | 43% | 1014.4 hPa | 0 mm | - | - | - |
| 1788590104 | 17.22° C | 43% | 1014.4 hPa | 0 mm | - | - | - |
| 1788589204 | 17.78° C | 46% | 1013.7 hPa | 0 mm | - | - | - |
| 1788588304 | 17.78° C | 46% | 1013.7 hPa | 0 mm | - | - | - |
| 1788587404 | 17.78° C | 47% | 1013.4 hPa | 0 mm | - | - | - |
| 1788561304 | 16.11° C | 60% | 1011.5 hPa | 0 mm | - | - | - |
| 1788560404 | 16.11° C | 60% | 1011.3 hPa | 0 mm | - | - | - |
| 1788559505 | 16.11° C | 60% | 1011.3 hPa | 0 mm | - | - | - |
| 1788550504 | 14.44° C | 84% | 1010.1 hPa | 0 mm | - | - | - |
| 1788548704 | 14.44° C | 82% | 1009.9 hPa | 0 mm | - | - | - |
| 1788546904 | 14.44° C | 83% | 1009.6 hPa | 0.51 mm | - | - | - |
| 1788546004 | 14.44° C | 84% | 1009.7 hPa | 0.51 mm | - | - | - |
| 1788539704 | 14.44° C | 78% | 1008.8 hPa | 0 mm | - | - | - |
| 1788537904 | 13.89° C | 80% | 1008.5 hPa | 0 mm | - | - | - |
| 1788536104 | 13.89° C | 79% | 1008.8 hPa | 0 mm | - | - | - |
| 1788534304 | 15° C | 74% | 1008.5 hPa | 0 mm | - | - | - |
| 1788532504 | 15.56° C | 70% | 1009.5 hPa | 0 mm | - | - | - |
| 1788531604 | 15.56° C | 70% | 1009.5 hPa | 0 mm | - | - | - |
| 1788528004 | 16.67° C | 67% | 1010.4 hPa | 0 mm | - | - | - |
| 1788521704 | 17.22° C | 64% | 1011.3 hPa | 0 mm | - | - | - |
| 1788519904 | 16.67° C | 64% | 1011.2 hPa | 0 mm | - | - | - |
* Rain latest hour (hover to see other rain measurements)
** Current wind speed in m/s (hover to see current wind gust speed)